createdAt,value
2023-04-21T00:01:27.698Z,100003.25
2023-04-21T00:03:56.396Z,100000.91
2023-04-21T00:06:23.549Z,100005.75
2023-04-21T00:08:50.827Z,100004.34
2023-04-21T00:11:18.267Z,100004.13
2023-04-21T00:13:45.266Z,99997.41
2023-04-21T00:16:12.480Z,99996.66
2023-04-21T00:18:39.419Z,99996.31
2023-04-21T00:21:06.430Z,99996.38
2023-04-21T00:23:33.417Z,99992.69
2023-04-21T00:26:02.744Z,99982.44
2023-04-21T00:28:30.169Z,99982.28
2023-04-21T00:30:57.167Z,99980.09
2023-04-21T00:33:24.447Z,99981.00
2023-04-21T00:35:51.366Z,99977.34
2023-04-21T00:38:18.404Z,99985.31
2023-04-21T00:40:45.379Z,99986.00
2023-04-21T00:43:12.242Z,99981.22
2023-04-21T00:45:39.251Z,99983.81
2023-04-21T00:48:06.300Z,99980.63
2023-04-21T00:50:33.672Z,99988.28
2023-04-21T00:53:00.788Z,99975.94
2023-04-21T00:55:28.946Z,99983.72
2023-04-21T00:57:56.632Z,99990.78
2023-04-21T01:00:23.950Z,99982.50
2023-04-21T01:02:51.199Z,99970.81
2023-04-21T01:05:18.302Z,99969.63
2023-04-21T01:07:45.994Z,99982.69
2023-04-21T01:10:12.988Z,99975.91
2023-04-21T01:12:47.516Z,99974.41
2023-04-21T01:15:16.864Z,99967.06
2023-04-21T01:17:45.257Z,99973.63
2023-04-21T01:20:14.725Z,99965.78
2023-04-21T01:22:44.526Z,99964.03
2023-04-21T01:25:12.588Z,99965.19
2023-04-21T01:27:39.448Z,99965.09
2023-04-21T01:30:10.001Z,99957.50
2023-04-21T01:32:37.184Z,99964.66
2023-04-21T01:35:04.617Z,99967.84
2023-04-21T01:37:33.848Z,99963.19
2023-04-21T01:40:05.350Z,99965.44
2023-04-21T01:42:33.817Z,99963.59
2023-04-21T01:45:00.949Z,99961.66
2023-04-21T01:47:28.127Z,99960.59
2023-04-21T01:49:55.195Z,99960.94
2023-04-21T01:52:22.332Z,99965.06
2023-04-21T01:54:49.549Z,99967.34
2023-04-21T01:57:17.561Z,99967.88
2023-04-21T01:59:44.957Z,99971.38
2023-04-21T02:02:11.917Z,99968.28
2023-04-21T02:04:39.107Z,99969.41
2023-04-21T02:07:06.370Z,99971.38
2023-04-21T02:09:34.420Z,99969.53
2023-04-21T02:12:02.369Z,99973.94
2023-04-21T02:14:29.408Z,99974.22
2023-04-21T02:16:56.423Z,99983.16
2023-04-21T02:19:24.081Z,99979.44
2023-04-21T02:21:51.081Z,99982.13
2023-04-21T02:24:18.100Z,99976.97
2023-04-21T02:26:44.972Z,99982.91
2023-04-21T02:29:11.846Z,99979.25
2023-04-21T02:31:50.070Z,99977.09
2023-04-21T02:34:26.068Z,99975.34
2023-04-21T02:36:52.990Z,99978.03
2023-04-21T02:39:20.185Z,99976.69
2023-04-21T02:41:47.220Z,99980.50
2023-04-21T02:44:14.122Z,99986.47
2023-04-21T02:46:42.105Z,99998.91
2023-04-21T02:49:10.212Z,99998.69
2023-04-21T02:51:37.355Z,99993.03
2023-04-21T02:54:05.179Z,99993.25
2023-04-21T02:56:34.494Z,99987.06
2023-04-21T02:59:01.546Z,99992.22
2023-04-21T03:01:28.430Z,99998.59
2023-04-21T03:03:55.631Z,99981.94
2023-04-21T03:06:22.714Z,99980.56
2023-04-21T03:08:49.594Z,99977.88
2023-04-21T03:11:16.550Z,99982.50
2023-04-21T03:13:43.544Z,99985.09
2023-04-21T03:16:10.511Z,99983.16
2023-04-21T03:18:37.512Z,99985.31
2023-04-21T03:21:04.414Z,99984.41
2023-04-21T03:23:31.356Z,99971.34
2023-04-21T03:25:58.248Z,99964.22
2023-04-21T03:28:26.191Z,99963.78
2023-04-21T03:30:53.094Z,99961.53
2023-04-21T03:33:19.979Z,99965.91
2023-04-21T03:35:46.963Z,99964.16
2023-04-21T03:38:13.923Z,99969.59
2023-04-21T03:40:40.921Z,99965.97
2023-04-21T03:43:07.836Z,99970.44
2023-04-21T03:45:37.996Z,99974.25
2023-04-21T03:48:05.501Z,99973.63
2023-04-21T03:50:32.588Z,99974.94
2023-04-21T03:52:59.479Z,99965.50
2023-04-21T03:55:26.465Z,99961.13
2023-04-21T03:57:53.424Z,99953.63
2023-04-21T04:00:21.191Z,99966.91
2023-04-21T04:02:48.268Z,99962.69
2023-04-21T04:05:15.763Z,99959.22
2023-04-21T04:07:42.721Z,99953.09
2023-04-21T04:10:09.716Z,99953.91
2023-04-21T04:12:36.619Z,99948.16
2023-04-21T04:15:03.863Z,99943.38
2023-04-21T04:17:30.894Z,99938.53
2023-04-21T04:19:57.789Z,99940.47
2023-04-21T04:22:24.805Z,99955.44
2023-04-21T04:24:53.193Z,99947.66
2023-04-21T04:27:20.406Z,99944.91
2023-04-21T04:29:49.315Z,99953.34
2023-04-21T04:32:16.396Z,99945.69
2023-04-21T04:34:43.486Z,99954.19
2023-04-21T04:37:11.240Z,99955.03
2023-04-21T04:39:38.213Z,99960.63
2023-04-21T04:42:11.783Z,99975.44
2023-04-21T04:44:38.929Z,99976.50
2023-04-21T04:47:06.174Z,99961.28
2023-04-21T04:49:33.364Z,99950.84
2023-04-21T04:52:01.901Z,99951.66
2023-04-21T04:54:29.282Z,99954.59
2023-04-21T04:56:57.923Z,99962.56
2023-04-21T04:59:24.988Z,99960.06
2023-04-21T05:01:52.673Z,99964.78
2023-04-21T05:04:20.504Z,99978.97
2023-04-21T05:06:47.947Z,99984.28
2023-04-21T05:09:14.913Z,99978.22
2023-04-21T05:11:41.949Z,99975.47
2023-04-21T05:14:08.903Z,99983.59
2023-04-21T05:16:36.000Z,99986.19
2023-04-21T05:19:04.395Z,99990.22
2023-04-21T05:21:31.455Z,99999.28
2023-04-21T05:23:59.733Z,100003.84
2023-04-21T05:26:28.073Z,100002.91
2023-04-21T05:28:56.756Z,100004.47
2023-04-21T05:31:26.854Z,100009.50
2023-04-21T05:33:53.905Z,100017.00
2023-04-21T05:36:20.919Z,100015.81
2023-04-21T05:38:47.894Z,100025.75
2023-04-21T05:41:14.883Z,100029.31
2023-04-21T05:43:42.024Z,100023.63
2023-04-21T05:46:10.987Z,100010.78
2023-04-21T05:48:38.053Z,100016.44
2023-04-21T05:51:13.416Z,100014.31
2023-04-21T05:53:40.502Z,100017.41
2023-04-21T05:56:12.611Z,100019.09
2023-04-21T05:58:39.606Z,100017.03
2023-04-21T06:01:06.728Z,100020.38
2023-04-21T06:03:34.394Z,100026.31
2023-04-21T06:06:04.778Z,100019.69
2023-04-21T06:08:32.528Z,100029.59
2023-04-21T06:10:59.580Z,100031.16
2023-04-21T06:13:27.791Z,100033.31
2023-04-21T06:15:55.443Z,100026.22
2023-04-21T06:18:22.736Z,100024.19
2023-04-21T06:20:54.553Z,100023.25
2023-04-21T06:23:21.750Z,100023.44
2023-04-21T06:26:04.203Z,100030.03
2023-04-21T06:28:36.331Z,100022.53
2023-04-21T06:31:07.810Z,100027.56
2023-04-21T06:33:36.601Z,100033.94
2023-04-21T06:36:04.300Z,100037.25
2023-04-21T06:38:31.592Z,100038.84
2023-04-21T06:40:58.964Z,100039.16
2023-04-21T06:43:26.076Z,100036.38
2023-04-21T06:45:53.042Z,100030.59
2023-04-21T06:48:20.008Z,100032.22
2023-04-21T06:50:46.899Z,100027.25
2023-04-21T06:53:14.083Z,100023.41
2023-04-21T06:55:42.035Z,100022.78
2023-04-21T06:58:08.981Z,100026.00
2023-04-21T07:00:36.174Z,100032.44
2023-04-21T07:03:03.337Z,100032.66
2023-04-21T07:05:30.379Z,100020.25
2023-04-21T07:07:59.992Z,100024.34
2023-04-21T07:10:27.844Z,100024.34
2023-04-21T07:12:56.119Z,100015.31
2023-04-21T07:15:23.083Z,100018.69
2023-04-21T07:17:50.174Z,100025.03
2023-04-21T07:20:18.802Z,100015.25
2023-04-21T07:22:46.249Z,100008.28
2023-04-21T07:25:13.341Z,100013.16
2023-04-21T07:27:40.618Z,100004.38
2023-04-21T07:30:08.726Z,100008.47
2023-04-21T07:32:37.379Z,100008.06
2023-04-21T07:35:06.532Z,100003.31
2023-04-21T07:37:34.716Z,100001.25
2023-04-21T07:40:01.890Z,99990.56
2023-04-21T07:42:28.792Z,99983.94
2023-04-21T07:44:57.431Z,99994.91
2023-04-21T07:47:24.517Z,99988.59
2023-04-21T07:49:52.366Z,99987.56
2023-04-21T07:52:19.410Z,99984.53
2023-04-21T07:54:47.392Z,99981.56
2023-04-21T07:57:14.906Z,99972.41
2023-04-21T07:59:41.905Z,99979.13
2023-04-21T08:02:09.998Z,99978.31
2023-04-21T08:04:37.137Z,99976.28
2023-04-21T08:07:04.469Z,99985.34
2023-04-21T08:09:31.524Z,99979.06
2023-04-21T08:11:58.540Z,99969.47
2023-04-21T08:14:26.957Z,99973.78
2023-04-21T08:16:56.692Z,99974.59
2023-04-21T08:19:25.864Z,99965.59
2023-04-21T08:21:52.999Z,99960.75
2023-04-21T08:24:20.656Z,99956.47
2023-04-21T08:26:47.926Z,99961.88
2023-04-21T08:29:14.980Z,99941.09
2023-04-21T08:31:42.225Z,99943.38
2023-04-21T08:34:09.323Z,99943.31
2023-04-21T08:36:36.287Z,99933.56
2023-04-21T08:39:04.028Z,99927.00
2023-04-21T08:41:31.010Z,99927.84
2023-04-21T08:43:58.002Z,99923.69
2023-04-21T08:46:25.535Z,99925.16
2023-04-21T08:48:55.001Z,99930.53
2023-04-21T08:51:24.379Z,99923.53
2023-04-21T08:53:52.204Z,99913.88
2023-04-21T08:56:19.346Z,99911.59
2023-04-21T08:58:46.359Z,99917.97
2023-04-21T09:01:13.559Z,99902.31
2023-04-21T09:03:40.836Z,99916.88
2023-04-21T09:06:12.747Z,99912.00
2023-04-21T09:08:44.237Z,99913.53
2023-04-21T09:11:15.133Z,99912.53
2023-04-21T09:13:44.082Z,99893.00
2023-04-21T09:16:22.539Z,99890.38
2023-04-21T09:18:51.575Z,99883.38
2023-04-21T09:21:20.419Z,99877.19
2023-04-21T09:23:52.861Z,99885.66
2023-04-21T09:26:24.890Z,99888.44
2023-04-21T09:28:53.147Z,99862.19
2023-04-21T09:31:25.295Z,99861.50
2023-04-21T09:34:00.362Z,99857.28
2023-04-21T09:36:30.561Z,99859.19
2023-04-21T09:41:33.953Z,99854.97
2023-04-21T09:44:01.807Z,99835.66
2023-04-21T09:46:32.727Z,99847.09
2023-04-21T09:49:04.245Z,99843.94
2023-04-21T09:52:02.271Z,99836.56
2023-04-21T09:56:57.626Z,99829.50
2023-04-21T09:59:33.097Z,99834.47
2023-04-21T10:02:02.174Z,99820.66
2023-04-21T10:04:33.229Z,99813.88
2023-04-21T10:07:01.119Z,99810.75
2023-04-21T10:09:37.113Z,99819.56
2023-04-21T10:12:06.953Z,99820.34
2023-04-21T10:14:36.252Z,99813.34
2023-04-21T10:17:08.972Z,99804.44
2023-04-21T10:19:41.694Z,99802.97
2023-04-21T10:22:09.925Z,99800.63
2023-04-21T10:24:40.298Z,99796.19
2023-04-21T10:27:11.760Z,99788.59
2023-04-21T10:29:52.374Z,99795.53
2023-04-21T10:32:42.033Z,99784.44
2023-04-21T10:35:13.943Z,99781.13
2023-04-21T10:37:43.465Z,99783.50
2023-04-21T10:43:06.504Z,99794.13
2023-04-21T10:45:34.476Z,99775.81
2023-04-21T10:48:03.850Z,99773.38
2023-04-21T10:50:31.947Z,99768.88
2023-04-21T10:53:13.229Z,99775.75
2023-04-21T10:55:42.338Z,99761.91
2023-04-21T10:58:10.027Z,99762.06
2023-04-21T11:00:40.709Z,99754.38
2023-04-21T11:03:08.690Z,99750.59
2023-04-21T11:05:41.492Z,99739.19
2023-04-21T11:08:12.979Z,99729.69
2023-04-21T11:10:55.049Z,99728.34
2023-04-21T11:13:29.074Z,99724.31
2023-04-21T11:15:57.878Z,99712.00
2023-04-21T11:18:37.366Z,99720.09
2023-04-21T11:21:13.592Z,99695.63
2023-04-21T11:23:42.202Z,99697.47
2023-04-21T11:26:09.194Z,99705.00
2023-04-21T11:28:36.480Z,99695.72
2023-04-21T11:31:04.941Z,99681.50
2023-04-21T11:33:38.625Z,99672.03
2023-04-21T11:36:07.692Z,99685.16
2023-04-21T11:38:39.995Z,99682.31
2023-04-21T11:41:07.964Z,99675.47
2023-04-21T11:43:35.154Z,99684.59
2023-04-21T11:46:13.611Z,99680.31
2023-04-21T11:48:40.927Z,99671.41
2023-04-21T11:51:16.238Z,99671.84
2023-04-21T11:53:43.303Z,99675.69
2023-04-21T11:56:11.932Z,99670.00
2023-04-21T11:58:39.807Z,99681.53
2023-04-21T12:01:10.114Z,99681.97
2023-04-21T12:03:37.691Z,99679.69
2023-04-21T12:06:06.685Z,99671.81
2023-04-21T12:08:34.261Z,99679.75
2023-04-21T12:11:03.020Z,99680.13
2023-04-21T12:13:31.356Z,99692.28
2023-04-21T12:15:58.440Z,99679.09
2023-04-21T12:18:28.323Z,99676.88
2023-04-21T12:20:55.441Z,99676.31
2023-04-21T12:23:22.359Z,99667.00
2023-04-21T12:25:50.032Z,99659.50
2023-04-21T12:28:18.151Z,99671.03
2023-04-21T12:30:45.226Z,99668.59
2023-04-21T12:33:13.028Z,99662.34
2023-04-21T12:35:40.201Z,99665.78
2023-04-21T12:38:07.320Z,99669.41
2023-04-21T12:40:35.618Z,99666.78
2023-04-21T12:43:02.616Z,99667.56
2023-04-21T12:45:29.744Z,99662.69
2023-04-21T12:47:58.150Z,99658.53
2023-04-21T12:50:25.270Z,99651.03
2023-04-21T12:52:55.145Z,99659.41
2023-04-21T12:55:25.510Z,99654.31
2023-04-21T12:57:53.301Z,99646.91
2023-04-21T13:00:20.943Z,99657.38
2023-04-21T13:02:48.100Z,99649.53
2023-04-21T13:05:15.297Z,99647.38
2023-04-21T13:07:42.246Z,99646.25
2023-04-21T13:10:11.155Z,99635.38
2023-04-21T13:12:38.087Z,99657.06
2023-04-21T13:15:05.958Z,99657.47
2023-04-21T13:17:32.973Z,99657.31
2023-04-21T13:20:00.142Z,99649.47
2023-04-21T13:22:27.122Z,99641.69
2023-04-21T13:24:54.098Z,99636.91
2023-04-21T13:27:21.059Z,99645.50
2023-04-21T13:29:49.180Z,99646.53
2023-04-21T13:32:16.197Z,99639.84
2023-04-21T13:34:43.069Z,99641.03
2023-04-21T13:37:12.510Z,99619.66
2023-04-21T13:39:39.983Z,99613.16
2023-04-21T13:42:07.245Z,99617.34
2023-04-21T13:44:34.345Z,99622.88
2023-04-21T13:47:01.345Z,99610.34
2023-04-21T13:49:28.459Z,99606.78
2023-04-21T13:51:55.396Z,99591.03
2023-04-21T13:54:22.585Z,99609.19
2023-04-21T13:56:49.542Z,99601.75
2023-04-21T13:59:16.676Z,99593.13
2023-04-21T14:01:43.656Z,99589.31
2023-04-21T14:04:10.942Z,99575.41
2023-04-21T14:06:38.061Z,99578.69
2023-04-21T14:09:06.407Z,99587.56
2023-04-21T14:11:33.333Z,99587.13
2023-04-21T14:16:31.894Z,99577.72
2023-04-21T14:18:58.894Z,99579.47
2023-04-21T14:21:25.766Z,99587.13
2023-04-21T14:23:52.785Z,99580.63
2023-04-21T14:26:20.947Z,99571.16
2023-04-21T14:28:48.113Z,99576.22
2023-04-21T14:31:16.157Z,99562.00
2023-04-21T14:33:43.134Z,99553.78
2023-04-21T14:36:11.392Z,99548.53
2023-04-21T14:38:38.473Z,99547.94
2023-04-21T14:41:05.623Z,99537.69
2023-04-21T14:43:32.579Z,99537.31
2023-04-21T14:45:59.591Z,99530.66
2023-04-21T14:48:27.209Z,99525.69
2023-04-21T14:50:54.785Z,99530.69
2023-04-21T14:53:21.726Z,99534.47
2023-04-21T14:55:48.736Z,99538.34
2023-04-21T14:58:15.768Z,99534.66
2023-04-21T15:00:43.241Z,99538.97
2023-04-21T15:03:10.340Z,99530.44
2023-04-21T15:05:37.651Z,99520.09
2023-04-21T15:08:05.300Z,99516.19
2023-04-21T15:10:32.394Z,99503.50
2023-04-21T15:12:59.562Z,99507.38
2023-04-21T15:15:26.544Z,99506.34
2023-04-21T15:17:53.509Z,99521.59
2023-04-21T15:20:29.508Z,99519.34
2023-04-21T15:23:03.866Z,99516.81
2023-04-21T15:25:30.999Z,99511.94
2023-04-21T15:27:57.895Z,99511.50
2023-04-21T15:30:24.807Z,99509.09
2023-04-21T15:32:51.820Z,99539.81
2023-04-21T15:35:18.779Z,99551.28
2023-04-21T15:37:45.700Z,99580.91
2023-04-21T15:40:12.878Z,99619.03
2023-04-21T15:42:39.862Z,99633.22
2023-04-21T15:45:07.791Z,99666.53
2023-04-21T15:47:40.459Z,99693.91
2023-04-21T15:50:09.501Z,99702.13
2023-04-21T15:52:43.542Z,99671.53
2023-04-21T15:55:12.107Z,99672.78
2023-04-21T15:57:39.625Z,99694.75
2023-04-21T16:00:10.165Z,99679.50
2023-04-21T16:02:37.709Z,99666.69
2023-04-21T16:05:05.979Z,99629.91
2023-04-21T16:07:33.265Z,99605.09
2023-04-21T16:10:00.406Z,99607.38
2023-04-21T16:12:27.837Z,99609.41
2023-04-21T16:14:59.670Z,99618.81
2023-04-21T16:17:31.992Z,99605.88
2023-04-21T16:19:59.088Z,99593.56
2023-04-21T16:22:26.235Z,99585.16
2023-04-21T16:24:53.365Z,99577.44
2023-04-21T16:27:20.855Z,99582.63
2023-04-21T16:29:47.851Z,99568.13
2023-04-21T16:32:15.187Z,99555.19
2023-04-21T16:34:42.614Z,99547.84
2023-04-21T16:37:09.984Z,99557.38
2023-04-21T16:39:37.003Z,99543.09
2023-04-21T16:42:04.021Z,99531.78
2023-04-21T16:44:30.996Z,99538.28
2023-04-21T16:46:58.036Z,99516.03
2023-04-21T16:49:25.159Z,99524.34
2023-04-21T16:51:52.075Z,99535.47
2023-04-21T16:54:18.991Z,99537.97
2023-04-21T16:56:45.852Z,99534.13
2023-04-21T16:59:12.820Z,99544.81
2023-04-21T17:01:39.780Z,99559.25
2023-04-21T17:04:07.092Z,99568.75
2023-04-21T17:06:34.281Z,99586.75
2023-04-21T17:09:01.624Z,99584.88
2023-04-21T17:11:29.925Z,99581.63
2023-04-21T17:13:56.931Z,99563.03
2023-04-21T17:16:24.835Z,99551.94
2023-04-21T17:18:51.863Z,99557.38
2023-04-21T17:21:18.738Z,99562.88
2023-04-21T17:23:45.775Z,99556.09
2023-04-21T17:26:13.328Z,99547.38
2023-04-21T17:28:40.836Z,99551.81
2023-04-21T17:33:40.572Z,99575.84
2023-04-21T17:36:08.122Z,99584.88
2023-04-21T17:38:36.303Z,99567.28
2023-04-21T17:41:04.560Z,99573.88
2023-04-21T17:43:31.599Z,99570.06
2023-04-21T17:45:59.704Z,99561.13
2023-04-21T17:48:27.226Z,99554.50
2023-04-21T17:50:54.114Z,99555.00
2023-04-21T17:53:21.351Z,99561.94
2023-04-21T17:55:49.220Z,99569.88
2023-04-21T17:58:16.211Z,99575.31
2023-04-21T18:00:43.117Z,99584.94
2023-04-21T18:03:10.210Z,99585.88
2023-04-21T18:05:37.280Z,99594.22
2023-04-21T18:08:04.236Z,99588.38
2023-04-21T18:10:31.232Z,99584.78
2023-04-21T18:12:58.488Z,99594.00
2023-04-21T18:15:25.770Z,99601.28
2023-04-21T18:17:53.151Z,99608.81
2023-04-21T18:20:20.613Z,99598.13
2023-04-21T18:22:48.538Z,99604.81
2023-04-21T18:25:18.637Z,99613.50
2023-04-21T18:27:49.060Z,99609.47
2023-04-21T18:30:16.508Z,99609.56
2023-04-21T18:32:43.495Z,99609.19
2023-04-21T18:35:10.587Z,99615.53
2023-04-21T18:37:37.526Z,99619.38
2023-04-21T18:40:05.668Z,99625.69
2023-04-21T18:42:33.454Z,99615.88
2023-04-21T18:45:03.192Z,99627.00
2023-04-21T18:47:31.150Z,99636.97
2023-04-21T18:49:58.323Z,99646.28
2023-04-21T18:52:25.309Z,99644.66
2023-04-21T18:54:52.315Z,99647.56
2023-04-21T18:57:19.227Z,99648.09
2023-04-21T18:59:46.312Z,99643.78
2023-04-21T19:02:14.048Z,99634.53
2023-04-21T19:04:43.614Z,99628.13
2023-04-21T19:07:11.438Z,99636.34
2023-04-21T19:09:38.611Z,99634.00
2023-04-21T19:12:05.776Z,99637.50
2023-04-21T19:14:42.496Z,99643.94
2023-04-21T19:17:13.724Z,99641.16
2023-04-21T19:19:41.333Z,99644.41
2023-04-21T19:22:08.458Z,99643.59
2023-04-21T19:24:35.699Z,99649.22
2023-04-21T19:27:03.535Z,99642.09
2023-04-21T19:29:31.229Z,99652.94
2023-04-21T19:32:00.980Z,99650.50
2023-04-21T19:34:27.898Z,99651.13
2023-04-21T19:36:55.917Z,99647.97
2023-04-21T19:39:22.896Z,99651.72
2023-04-21T19:41:49.912Z,99656.34
2023-04-21T19:44:16.926Z,99659.72
2023-04-21T19:46:43.929Z,99659.97
2023-04-21T19:49:13.092Z,99651.63
2023-04-21T19:51:41.271Z,99651.66
2023-04-21T19:54:12.173Z,99651.03
2023-04-21T19:56:40.272Z,99663.38
2023-04-21T19:59:07.362Z,99660.91
2023-04-21T20:01:34.773Z,99665.88
2023-04-21T20:04:03.298Z,99660.81
2023-04-21T20:06:31.641Z,99657.78
2023-04-21T20:08:59.001Z,99650.63
2023-04-21T20:11:28.795Z,99638.16
2023-04-21T20:13:56.153Z,99657.94
2023-04-21T20:16:23.884Z,99663.53
2023-04-21T20:18:50.899Z,99663.09
2023-04-21T20:21:17.805Z,99655.31
2023-04-21T20:23:44.884Z,99659.28
2023-04-21T20:26:12.240Z,99660.41
2023-04-21T20:28:39.133Z,99667.56
2023-04-21T20:31:06.185Z,99673.69
2023-04-21T20:33:33.169Z,99663.31
2023-04-21T20:36:07.354Z,99668.72
2023-04-21T20:38:34.894Z,99660.06
2023-04-21T20:41:03.682Z,99662.09
2023-04-21T20:43:34.206Z,99651.50
2023-04-21T20:46:01.885Z,99664.47
2023-04-21T20:48:28.824Z,99658.59
2023-04-21T20:50:55.957Z,99660.28
2023-04-21T20:53:23.542Z,99659.13
2023-04-21T20:55:50.993Z,99662.09
2023-04-21T20:58:18.116Z,99671.53
2023-04-21T21:00:45.335Z,99666.94
2023-04-21T21:03:13.797Z,99670.09
2023-04-21T21:05:41.441Z,99677.94
2023-04-21T21:08:09.075Z,99679.41
2023-04-21T21:10:36.126Z,99682.50
2023-04-21T21:13:03.612Z,99677.09
2023-04-21T21:15:30.867Z,99681.16
2023-04-21T21:17:58.068Z,99670.28
2023-04-21T21:20:25.052Z,99672.75
2023-04-21T21:22:51.988Z,99680.22
2023-04-21T21:25:18.927Z,99686.38
2023-04-21T21:27:46.300Z,99680.81
2023-04-21T21:30:13.568Z,99680.50
2023-04-21T21:32:40.701Z,99679.53
2023-04-21T21:35:09.465Z,99688.97
2023-04-21T21:37:37.227Z,99680.75
2023-04-21T21:40:06.077Z,99684.03
2023-04-21T21:42:33.102Z,99683.22
2023-04-21T21:45:00.827Z,99686.53
2023-04-21T21:47:27.821Z,99690.38
2023-04-21T21:49:55.997Z,99690.84
2023-04-21T21:52:23.035Z,99683.06
2023-04-21T21:54:49.987Z,99689.06
2023-04-21T21:57:17.045Z,99682.41
2023-04-21T21:59:44.324Z,99686.16
2023-04-21T22:02:11.334Z,99679.66
2023-04-21T22:04:38.354Z,99678.00
2023-04-21T22:07:05.402Z,99674.28
2023-04-21T22:09:32.965Z,99678.00
2023-04-21T22:12:00.005Z,99672.16
2023-04-21T22:14:27.067Z,99675.09
2023-04-21T22:16:54.068Z,99677.03
2023-04-21T22:19:21.244Z,99674.75
2023-04-21T22:21:49.363Z,99676.06
2023-04-21T22:24:16.364Z,99678.97
2023-04-21T22:26:47.064Z,99674.09
2023-04-21T22:29:13.965Z,99670.81
2023-04-21T22:31:41.136Z,99680.94
2023-04-21T22:34:08.170Z,99681.56
2023-04-21T22:36:35.163Z,99683.03
2023-04-21T22:39:02.222Z,99670.78
2023-04-21T22:41:29.157Z,99671.31
2023-04-21T22:43:56.074Z,99663.38
2023-04-21T22:46:23.085Z,99666.97
2023-04-21T22:48:51.279Z,99671.84
2023-04-21T22:51:21.468Z,99666.31
2023-04-21T22:53:48.569Z,99664.03
2023-04-21T22:56:15.887Z,99674.44
2023-04-21T22:58:43.305Z,99672.84
2023-04-21T23:01:10.287Z,99679.66
2023-04-21T23:03:37.344Z,99675.25
2023-04-21T23:06:04.588Z,99677.53
2023-04-21T23:08:31.535Z,99683.75
2023-04-21T23:10:58.513Z,99665.16
2023-04-21T23:13:25.833Z,99666.00
2023-04-21T23:15:52.981Z,99667.47
2023-04-21T23:18:19.955Z,99665.34
2023-04-21T23:20:46.808Z,99672.00
2023-04-21T23:23:13.704Z,99672.50
2023-04-21T23:25:40.799Z,99664.53
2023-04-21T23:28:07.833Z,99660.13
2023-04-21T23:30:35.067Z,99659.66
2023-04-21T23:33:02.186Z,99666.31
2023-04-21T23:35:29.299Z,99664.03
2023-04-21T23:37:56.227Z,99659.63
2023-04-21T23:40:23.532Z,99664.06
2023-04-21T23:42:50.726Z,99659.81
2023-04-21T23:45:17.618Z,99654.94
2023-04-21T23:47:45.719Z,99648.75
2023-04-21T23:50:12.831Z,99652.50
2023-04-21T23:52:42.100Z,99651.66
2023-04-21T23:55:11.812Z,99649.38
2023-04-21T23:57:38.941Z,99650.66
